sensor_id;sensor_type;location;lat;lon;timestamp;P1;durP1;ratioP1;P2;durP2;ratioP2
51374;SDS011;37465;52.738;4.752;2023-02-08T00:02:15;17.35;;;10.73;;
51374;SDS011;37465;52.738;4.752;2023-02-08T00:04:43;17.02;;;11.18;;
51374;SDS011;37465;52.738;4.752;2023-02-08T00:07:11;18.88;;;11.43;;
51374;SDS011;37465;52.738;4.752;2023-02-08T00:09:39;16.58;;;10.75;;
51374;SDS011;37465;52.738;4.752;2023-02-08T00:12:06;17.65;;;11.70;;
51374;SDS011;37465;52.738;4.752;2023-02-08T00:14:35;15.95;;;11.82;;
51374;SDS011;37465;52.738;4.752;2023-02-08T00:17:04;18.08;;;10.98;;
51374;SDS011;37465;52.738;4.752;2023-02-08T00:19:31;19.42;;;11.63;;
51374;SDS011;37465;52.738;4.752;2023-02-08T00:21:59;17.30;;;10.95;;
51374;SDS011;37465;52.738;4.752;2023-02-08T00:24:27;17.25;;;11.30;;
51374;SDS011;37465;52.738;4.752;2023-02-08T00:26:54;17.00;;;11.45;;
51374;SDS011;37465;52.738;4.752;2023-02-08T00:29:22;19.02;;;11.70;;
51374;SDS011;37465;52.738;4.752;2023-02-08T00:31:49;22.17;;;12.57;;
51374;SDS011;37465;52.738;4.752;2023-02-08T00:34:18;19.48;;;12.00;;
51374;SDS011;37465;52.738;4.752;2023-02-08T00:36:46;20.40;;;12.77;;
51374;SDS011;37465;52.738;4.752;2023-02-08T00:39:14;21.13;;;11.88;;
51374;SDS011;37465;52.738;4.752;2023-02-08T00:41:41;17.75;;;11.95;;
51374;SDS011;37465;52.738;4.752;2023-02-08T00:44:09;18.42;;;11.23;;
51374;SDS011;37465;52.738;4.752;2023-02-08T00:46:37;19.02;;;12.05;;
51374;SDS011;37465;52.738;4.752;2023-02-08T00:49:04;17.40;;;11.90;;
51374;SDS011;37465;52.738;4.752;2023-02-08T00:51:33;20.92;;;12.27;;
51374;SDS011;37465;52.738;4.752;2023-02-08T00:54:01;20.42;;;12.90;;
51374;SDS011;37465;52.738;4.752;2023-02-08T00:56:29;18.13;;;11.68;;
51374;SDS011;37465;52.738;4.752;2023-02-08T00:58:56;18.63;;;12.32;;
51374;SDS011;37465;52.738;4.752;2023-02-08T01:01:24;19.17;;;12.27;;
51374;SDS011;37465;52.738;4.752;2023-02-08T01:03:52;18.52;;;12.00;;
51374;SDS011;37465;52.738;4.752;2023-02-08T01:06:19;19.70;;;13.02;;
51374;SDS011;37465;52.738;4.752;2023-02-08T01:08:48;17.83;;;11.32;;
51374;SDS011;37465;52.738;4.752;2023-02-08T01:11:17;19.48;;;11.85;;
51374;SDS011;37465;52.738;4.752;2023-02-08T01:13:47;16.25;;;11.05;;
51374;SDS011;37465;52.738;4.752;2023-02-08T01:16:17;17.60;;;11.57;;
51374;SDS011;37465;52.738;4.752;2023-02-08T01:18:48;19.90;;;12.18;;
51374;SDS011;37465;52.738;4.752;2023-02-08T01:23:45;23.27;;;11.95;;
51374;SDS011;37465;52.738;4.752;2023-02-08T01:26:15;19.48;;;10.95;;
51374;SDS011;37465;52.738;4.752;2023-02-08T01:28:44;18.30;;;11.68;;
51374;SDS011;37465;52.738;4.752;2023-02-08T01:31:12;19.58;;;12.00;;
51374;SDS011;37465;52.738;4.752;2023-02-08T01:33:42;20.45;;;11.98;;
51374;SDS011;37465;52.738;4.752;2023-02-08T01:36:10;17.35;;;11.32;;
51374;SDS011;37465;52.738;4.752;2023-02-08T01:38:38;17.35;;;11.85;;
51374;SDS011;37465;52.738;4.752;2023-02-08T01:41:06;17.73;;;10.98;;
51374;SDS011;37465;52.738;4.752;2023-02-08T01:46:33;19.98;;;12.07;;
51374;SDS011;37465;52.738;4.752;2023-02-08T01:49:02;22.10;;;12.07;;
51374;SDS011;37465;52.738;4.752;2023-02-08T01:51:32;20.83;;;12.40;;
51374;SDS011;37465;52.738;4.752;2023-02-08T01:54:02;18.23;;;11.50;;
51374;SDS011;37465;52.738;4.752;2023-02-08T01:59:00;17.13;;;10.93;;
51374;SDS011;37465;52.738;4.752;2023-02-08T02:01:31;17.38;;;10.63;;
51374;SDS011;37465;52.738;4.752;2023-02-08T02:03:59;18.48;;;12.38;;
51374;SDS011;37465;52.738;4.752;2023-02-08T02:06:30;18.30;;;12.20;;
51374;SDS011;37465;52.738;4.752;2023-02-08T02:09:02;17.98;;;11.55;;
51374;SDS011;37465;52.738;4.752;2023-02-08T02:11:34;16.63;;;11.63;;
51374;SDS011;37465;52.738;4.752;2023-02-08T02:14:01;17.95;;;11.48;;
51374;SDS011;37465;52.738;4.752;2023-02-08T02:16:31;19.77;;;12.35;;
51374;SDS011;37465;52.738;4.752;2023-02-08T02:18:58;20.05;;;11.45;;
51374;SDS011;37465;52.738;4.752;2023-02-08T02:21:30;17.85;;;11.93;;
51374;SDS011;37465;52.738;4.752;2023-02-08T02:27:08;19.42;;;11.38;;
51374;SDS011;37465;52.738;4.752;2023-02-08T02:29:53;22.63;;;11.93;;
51374;SDS011;37465;52.738;4.752;2023-02-08T02:32:41;17.90;;;11.50;;
51374;SDS011;37465;52.738;4.752;2023-02-08T02:35:14;18.25;;;11.57;;
51374;SDS011;37465;52.738;4.752;2023-02-08T02:37:47;19.27;;;11.02;;
51374;SDS011;37465;52.738;4.752;2023-02-08T02:40:23;19.40;;;11.55;;
51374;SDS011;37465;52.738;4.752;2023-02-08T02:42:57;17.35;;;10.90;;
51374;SDS011;37465;52.738;4.752;2023-02-08T02:45:48;20.02;;;11.77;;
51374;SDS011;37465;52.738;4.752;2023-02-08T02:48:24;18.38;;;11.90;;
51374;SDS011;37465;52.738;4.752;2023-02-08T02:50:57;19.50;;;11.65;;
51374;SDS011;37465;52.738;4.752;2023-02-08T02:53:28;17.75;;;11.07;;
51374;SDS011;37465;52.738;4.752;2023-02-08T02:56:01;18.67;;;11.40;;
51374;SDS011;37465;52.738;4.752;2023-02-08T02:58:30;16.80;;;11.27;;
51374;SDS011;37465;52.738;4.752;2023-02-08T03:00:59;16.80;;;10.60;;
51374;SDS011;37465;52.738;4.752;2023-02-08T03:03:29;17.00;;;11.57;;
51374;SDS011;37465;52.738;4.752;2023-02-08T03:05:59;18.15;;;11.07;;
51374;SDS011;37465;52.738;4.752;2023-02-08T03:08:32;17.40;;;10.98;;
51374;SDS011;37465;52.738;4.752;2023-02-08T03:11:16;17.65;;;10.52;;
51374;SDS011;37465;52.738;4.752;2023-02-08T03:14:00;18.17;;;11.70;;
51374;SDS011;37465;52.738;4.752;2023-02-08T03:16:43;18.65;;;11.05;;
51374;SDS011;37465;52.738;4.752;2023-02-08T03:19:23;17.05;;;11.60;;
51374;SDS011;37465;52.738;4.752;2023-02-08T03:21:55;19.05;;;12.38;;
51374;SDS011;37465;52.738;4.752;2023-02-08T03:24:27;18.95;;;12.10;;
51374;SDS011;37465;52.738;4.752;2023-02-08T03:26:57;20.55;;;12.02;;
51374;SDS011;37465;52.738;4.752;2023-02-08T03:29:31;18.30;;;11.65;;
51374;SDS011;37465;52.738;4.752;2023-02-08T03:32:05;16.52;;;11.07;;
51374;SDS011;37465;52.738;4.752;2023-02-08T03:34:40;17.38;;;10.82;;
51374;SDS011;37465;52.738;4.752;2023-02-08T03:37:12;19.20;;;11.93;;
51374;SDS011;37465;52.738;4.752;2023-02-08T03:39:41;19.30;;;12.10;;
51374;SDS011;37465;52.738;4.752;2023-02-08T03:42:10;18.10;;;11.38;;
51374;SDS011;37465;52.738;4.752;2023-02-08T03:44:42;19.67;;;11.38;;
51374;SDS011;37465;52.738;4.752;2023-02-08T03:47:14;20.15;;;11.77;;
51374;SDS011;37465;52.738;4.752;2023-02-08T03:49:45;17.05;;;11.60;;
51374;SDS011;37465;52.738;4.752;2023-02-08T03:52:15;18.40;;;12.13;;
51374;SDS011;37465;52.738;4.752;2023-02-08T03:54:43;20.02;;;12.07;;
51374;SDS011;37465;52.738;4.752;2023-02-08T03:57:15;18.38;;;12.50;;
51374;SDS011;37465;52.738;4.752;2023-02-08T03:59:45;17.00;;;12.00;;
51374;SDS011;37465;52.738;4.752;2023-02-08T04:02:17;19.35;;;11.30;;
51374;SDS011;37465;52.738;4.752;2023-02-08T04:04:48;17.35;;;11.70;;
51374;SDS011;37465;52.738;4.752;2023-02-08T04:07:17;16.08;;;11.32;;
51374;SDS011;37465;52.738;4.752;2023-02-08T04:09:45;18.10;;;10.65;;
51374;SDS011;37465;52.738;4.752;2023-02-08T04:12:13;17.25;;;11.80;;
51374;SDS011;37465;52.738;4.752;2023-02-08T04:14:40;17.27;;;11.98;;
51374;SDS011;37465;52.738;4.752;2023-02-08T04:17:08;17.70;;;11.90;;
51374;SDS011;37465;52.738;4.752;2023-02-08T04:19:36;15.52;;;11.48;;
51374;SDS011;37465;52.738;4.752;2023-02-08T04:22:05;18.38;;;12.07;;
51374;SDS011;37465;52.738;4.752;2023-02-08T04:24:32;18.63;;;12.60;;
51374;SDS011;37465;52.738;4.752;2023-02-08T04:27:00;19.05;;;12.00;;
51374;SDS011;37465;52.738;4.752;2023-02-08T04:29:31;16.65;;;11.77;;
51374;SDS011;37465;52.738;4.752;2023-02-08T04:31:58;17.88;;;12.30;;
51374;SDS011;37465;52.738;4.752;2023-02-08T04:34:26;18.63;;;12.30;;
51374;SDS011;37465;52.738;4.752;2023-02-08T04:36:54;19.42;;;12.13;;
51374;SDS011;37465;52.738;4.752;2023-02-08T04:39:23;17.00;;;11.85;;
51374;SDS011;37465;52.738;4.752;2023-02-08T04:41:51;17.60;;;12.30;;
51374;SDS011;37465;52.738;4.752;2023-02-08T04:44:18;17.35;;;11.68;;
51374;SDS011;37465;52.738;4.752;2023-02-08T04:46:46;17.42;;;12.43;;
51374;SDS011;37465;52.738;4.752;2023-02-08T04:49:14;18.95;;;13.13;;
51374;SDS011;37465;52.738;4.752;2023-02-08T04:51:41;18.63;;;11.73;;
51374;SDS011;37465;52.738;4.752;2023-02-08T04:54:09;18.40;;;12.32;;
51374;SDS011;37465;52.738;4.752;2023-02-08T04:56:38;19.00;;;12.05;;
51374;SDS011;37465;52.738;4.752;2023-02-08T04:59:06;17.30;;;11.80;;
51374;SDS011;37465;52.738;4.752;2023-02-08T05:01:34;19.20;;;13.00;;
51374;SDS011;37465;52.738;4.752;2023-02-08T05:04:01;15.50;;;10.80;;
51374;SDS011;37465;52.738;4.752;2023-02-08T05:06:29;17.73;;;11.88;;
51374;SDS011;37465;52.738;4.752;2023-02-08T05:08:57;14.60;;;10.70;;
51374;SDS011;37465;52.738;4.752;2023-02-08T05:11:25;21.13;;;13.65;;
51374;SDS011;37465;52.738;4.752;2023-02-08T05:13:54;17.60;;;12.05;;
51374;SDS011;37465;52.738;4.752;2023-02-08T05:16:22;18.30;;;12.18;;
51374;SDS011;37465;52.738;4.752;2023-02-08T05:18:50;18.83;;;12.15;;
51374;SDS011;37465;52.738;4.752;2023-02-08T05:21:17;19.55;;;13.82;;
51374;SDS011;37465;52.738;4.752;2023-02-08T05:23:45;19.02;;;13.50;;
51374;SDS011;37465;52.738;4.752;2023-02-08T05:26:12;22.23;;;14.65;;
51374;SDS011;37465;52.738;4.752;2023-02-08T05:28:40;20.77;;;13.02;;
51374;SDS011;37465;52.738;4.752;2023-02-08T05:31:10;20.00;;;13.35;;
51374;SDS011;37465;52.738;4.752;2023-02-08T05:33:39;17.73;;;13.23;;
51374;SDS011;37465;52.738;4.752;2023-02-08T05:36:07;21.98;;;13.25;;
51374;SDS011;37465;52.738;4.752;2023-02-08T05:38:35;19.85;;;12.75;;
51374;SDS011;37465;52.738;4.752;2023-02-08T05:41:03;19.73;;;12.95;;
51374;SDS011;37465;52.738;4.752;2023-02-08T05:43:31;16.10;;;12.40;;
51374;SDS011;37465;52.738;4.752;2023-02-08T05:45:59;17.02;;;12.82;;
51374;SDS011;37465;52.738;4.752;2023-02-08T05:48:28;17.15;;;12.40;;
51374;SDS011;37465;52.738;4.752;2023-02-08T05:50:56;20.70;;;13.40;;
51374;SDS011;37465;52.738;4.752;2023-02-08T05:53:24;19.30;;;12.65;;
51374;SDS011;37465;52.738;4.752;2023-02-08T05:55:52;19.48;;;13.23;;
51374;SDS011;37465;52.738;4.752;2023-02-08T05:58:20;19.77;;;13.90;;
51374;SDS011;37465;52.738;4.752;2023-02-08T06:00:47;18.60;;;14.20;;
51374;SDS011;37465;52.738;4.752;2023-02-08T06:03:15;18.33;;;13.20;;
51374;SDS011;37465;52.738;4.752;2023-02-08T06:05:44;19.23;;;13.50;;
51374;SDS011;37465;52.738;4.752;2023-02-08T06:08:12;19.00;;;13.23;;
51374;SDS011;37465;52.738;4.752;2023-02-08T06:10:40;18.45;;;12.98;;
51374;SDS011;37465;52.738;4.752;2023-02-08T06:13:08;19.83;;;13.65;;
51374;SDS011;37465;52.738;4.752;2023-02-08T06:15:36;22.38;;;13.45;;
51374;SDS011;37465;52.738;4.752;2023-02-08T06:18:03;18.33;;;12.90;;
51374;SDS011;37465;52.738;4.752;2023-02-08T06:20:31;19.27;;;14.35;;
51374;SDS011;37465;52.738;4.752;2023-02-08T06:23:00;20.13;;;14.18;;
51374;SDS011;37465;52.738;4.752;2023-02-08T06:25:28;19.83;;;13.55;;
51374;SDS011;37465;52.738;4.752;2023-02-08T06:27:55;18.95;;;12.88;;
51374;SDS011;37465;52.738;4.752;2023-02-08T06:30:23;20.23;;;13.68;;
51374;SDS011;37465;52.738;4.752;2023-02-08T06:32:51;17.08;;;12.52;;
51374;SDS011;37465;52.738;4.752;2023-02-08T06:35:19;17.70;;;12.68;;
51374;SDS011;37465;52.738;4.752;2023-02-08T06:37:46;18.48;;;12.80;;
51374;SDS011;37465;52.738;4.752;2023-02-08T06:40:15;17.20;;;12.82;;
51374;SDS011;37465;52.738;4.752;2023-02-08T06:42:43;20.85;;;13.60;;
51374;SDS011;37465;52.738;4.752;2023-02-08T06:45:11;16.92;;;12.63;;
51374;SDS011;37465;52.738;4.752;2023-02-08T06:47:39;20.52;;;13.48;;
51374;SDS011;37465;52.738;4.752;2023-02-08T06:50:07;21.00;;;14.60;;
51374;SDS011;37465;52.738;4.752;2023-02-08T06:52:35;19.38;;;13.70;;
51374;SDS011;37465;52.738;4.752;2023-02-08T06:55:03;19.70;;;13.27;;
51374;SDS011;37465;52.738;4.752;2023-02-08T06:57:32;20.85;;;14.30;;
51374;SDS011;37465;52.738;4.752;2023-02-08T07:00:00;22.83;;;14.50;;
51374;SDS011;37465;52.738;4.752;2023-02-08T07:02:28;22.65;;;14.65;;
51374;SDS011;37465;52.738;4.752;2023-02-08T07:04:56;19.58;;;14.60;;
51374;SDS011;37465;52.738;4.752;2023-02-08T07:07:23;19.35;;;13.50;;
51374;SDS011;37465;52.738;4.752;2023-02-08T07:09:51;22.48;;;14.57;;
51374;SDS011;37465;52.738;4.752;2023-02-08T07:12:19;18.38;;;13.40;;
51374;SDS011;37465;52.738;4.752;2023-02-08T07:14:48;19.88;;;13.88;;
51374;SDS011;37465;52.738;4.752;2023-02-08T07:17:16;23.20;;;14.05;;
51374;SDS011;37465;52.738;4.752;2023-02-08T07:19:43;22.42;;;14.65;;
51374;SDS011;37465;52.738;4.752;2023-02-08T07:22:11;20.63;;;13.70;;
51374;SDS011;37465;52.738;4.752;2023-02-08T07:24:39;20.58;;;14.30;;
51374;SDS011;37465;52.738;4.752;2023-02-08T07:27:08;19.52;;;14.25;;
51374;SDS011;37465;52.738;4.752;2023-02-08T07:29:36;19.60;;;13.35;;
51374;SDS011;37465;52.738;4.752;2023-02-08T07:32:06;19.77;;;13.77;;
51374;SDS011;37465;52.738;4.752;2023-02-08T07:34:35;17.67;;;12.90;;
51374;SDS011;37465;52.738;4.752;2023-02-08T07:37:05;19.13;;;13.18;;
51374;SDS011;37465;52.738;4.752;2023-02-08T07:39:33;20.40;;;13.57;;
51374;SDS011;37465;52.738;4.752;2023-02-08T07:42:01;20.50;;;14.13;;
51374;SDS011;37465;52.738;4.752;2023-02-08T07:44:30;19.10;;;14.02;;
51374;SDS011;37465;52.738;4.752;2023-02-08T07:46:58;19.35;;;13.88;;
51374;SDS011;37465;52.738;4.752;2023-02-08T07:49:28;20.30;;;14.80;;
51374;SDS011;37465;52.738;4.752;2023-02-08T07:51:56;19.58;;;14.48;;
51374;SDS011;37465;52.738;4.752;2023-02-08T07:54:24;17.27;;;13.25;;
51374;SDS011;37465;52.738;4.752;2023-02-08T07:56:52;18.52;;;14.15;;
51374;SDS011;37465;52.738;4.752;2023-02-08T07:59:20;20.17;;;14.80;;
51374;SDS011;37465;52.738;4.752;2023-02-08T08:01:47;20.63;;;15.15;;
51374;SDS011;37465;52.738;4.752;2023-02-08T08:04:15;21.60;;;14.57;;
51374;SDS011;37465;52.738;4.752;2023-02-08T08:06:46;21.85;;;14.77;;
51374;SDS011;37465;52.738;4.752;2023-02-08T08:09:15;24.02;;;15.32;;
51374;SDS011;37465;52.738;4.752;2023-02-08T08:11:42;22.08;;;15.15;;
51374;SDS011;37465;52.738;4.752;2023-02-08T08:14:10;24.17;;;16.77;;
51374;SDS011;37465;52.738;4.752;2023-02-08T08:16:38;24.75;;;17.52;;
51374;SDS011;37465;52.738;4.752;2023-02-08T08:19:05;25.02;;;17.05;;
51374;SDS011;37465;52.738;4.752;2023-02-08T08:21:33;23.90;;;17.40;;
51374;SDS011;37465;52.738;4.752;2023-02-08T08:24:02;22.63;;;17.13;;
51374;SDS011;37465;52.738;4.752;2023-02-08T08:26:30;17.50;;;12.65;;
51374;SDS011;37465;52.738;4.752;2023-02-08T08:28:57;24.98;;;16.80;;
51374;SDS011;37465;52.738;4.752;2023-02-08T08:31:25;18.90;;;15.07;;
51374;SDS011;37465;52.738;4.752;2023-02-08T08:33:54;23.10;;;15.63;;
51374;SDS011;37465;52.738;4.752;2023-02-08T08:36:21;23.20;;;16.83;;
51374;SDS011;37465;52.738;4.752;2023-02-08T12:11:27;14.68;;;11.38;;
51374;SDS011;37465;52.738;4.752;2023-02-08T12:16:29;15.02;;;11.73;;
51374;SDS011;37465;52.738;4.752;2023-02-08T12:19:11;14.57;;;11.25;;
51374;SDS011;37465;52.738;4.752;2023-02-08T12:21:56;15.10;;;10.30;;
51374;SDS011;37465;52.738;4.752;2023-02-08T12:24:28;13.35;;;10.88;;
51374;SDS011;37465;52.738;4.752;2023-02-08T12:27:05;12.88;;;11.40;;
51374;SDS011;37465;52.738;4.752;2023-02-08T12:29:42;14.25;;;11.30;;
51374;SDS011;37465;52.738;4.752;2023-02-08T12:32:27;15.13;;;10.73;;
51374;SDS011;37465;52.738;4.752;2023-02-08T12:35:03;16.08;;;11.77;;
51374;SDS011;37465;52.738;4.752;2023-02-08T12:38:05;25.80;;;10.98;;
51374;SDS011;37465;52.738;4.752;2023-02-08T12:40:56;14.15;;;10.13;;
51374;SDS011;37465;52.738;4.752;2023-02-08T12:43:39;13.75;;;10.75;;
51374;SDS011;37465;52.738;4.752;2023-02-08T12:46:17;12.98;;;11.52;;
51374;SDS011;37465;52.738;4.752;2023-02-08T12:48:52;12.30;;;10.27;;
51374;SDS011;37465;52.738;4.752;2023-02-08T12:51:28;13.43;;;10.75;;
51374;SDS011;37465;52.738;4.752;2023-02-08T12:54:02;12.43;;;10.15;;
51374;SDS011;37465;52.738;4.752;2023-02-08T12:56:31;14.32;;;10.90;;
51374;SDS011;37465;52.738;4.752;2023-02-08T12:59:04;16.63;;;10.77;;
51374;SDS011;37465;52.738;4.752;2023-02-08T13:01:40;12.00;;;10.02;;
51374;SDS011;37465;52.738;4.752;2023-02-08T13:04:11;13.82;;;10.43;;
51374;SDS011;37465;52.738;4.752;2023-02-08T13:06:40;14.50;;;10.32;;
51374;SDS011;37465;52.738;4.752;2023-02-08T13:09:12;12.75;;;10.27;;
51374;SDS011;37465;52.738;4.752;2023-02-08T13:11:43;10.63;;;9.45;;
51374;SDS011;37465;52.738;4.752;2023-02-08T13:14:18;12.73;;;8.95;;
51374;SDS011;37465;52.738;4.752;2023-02-08T13:16:53;10.60;;;9.32;;
51374;SDS011;37465;52.738;4.752;2023-02-08T13:19:25;10.70;;;8.82;;
51374;SDS011;37465;52.738;4.752;2023-02-08T13:21:56;11.70;;;9.05;;
51374;SDS011;37465;52.738;4.752;2023-02-08T13:24:26;10.45;;;8.52;;
51374;SDS011;37465;52.738;4.752;2023-02-08T13:26:56;11.02;;;7.95;;
51374;SDS011;37465;52.738;4.752;2023-02-08T13:29:25;8.70;;;7.18;;
51374;SDS011;37465;52.738;4.752;2023-02-08T13:31:55;8.27;;;6.75;;
51374;SDS011;37465;52.738;4.752;2023-02-08T13:34:27;8.20;;;6.20;;
51374;SDS011;37465;52.738;4.752;2023-02-08T13:36:57;7.75;;;6.10;;
51374;SDS011;37465;52.738;4.752;2023-02-08T13:39:30;6.35;;;5.72;;
51374;SDS011;37465;52.738;4.752;2023-02-08T13:42:01;6.28;;;5.68;;
51374;SDS011;37465;52.738;4.752;2023-02-08T13:44:32;7.43;;;5.68;;
51374;SDS011;37465;52.738;4.752;2023-02-08T13:47:02;6.93;;;6.07;;
51374;SDS011;37465;52.738;4.752;2023-02-08T13:49:40;8.68;;;6.18;;
51374;SDS011;37465;52.738;4.752;2023-02-08T13:52:10;7.60;;;5.80;;
51374;SDS011;37465;52.738;4.752;2023-02-08T13:54:38;8.20;;;5.15;;
51374;SDS011;37465;52.738;4.752;2023-02-08T14:00:18;9.75;;;5.88;;
51374;SDS011;37465;52.738;4.752;2023-02-08T14:02:56;6.20;;;5.22;;
51374;SDS011;37465;52.738;4.752;2023-02-08T14:05:42;5.82;;;4.97;;
51374;SDS011;37465;52.738;4.752;2023-02-08T14:23:23;6.00;;;4.93;;
51374;SDS011;37465;52.738;4.752;2023-02-08T14:49:00;5.68;;;4.10;;
51374;SDS011;37465;52.738;4.752;2023-02-08T14:51:30;6.15;;;4.20;;
51374;SDS011;37465;52.738;4.752;2023-02-08T14:54:01;5.70;;;4.90;;
51374;SDS011;37465;52.738;4.752;2023-02-08T14:56:31;6.60;;;4.97;;
51374;SDS011;37465;52.738;4.752;2023-02-08T14:59:04;7.22;;;4.90;;
51374;SDS011;37465;52.738;4.752;2023-02-08T15:01:36;6.00;;;5.00;;
51374;SDS011;37465;52.738;4.752;2023-02-08T15:04:10;5.60;;;4.78;;
51374;SDS011;37465;52.738;4.752;2023-02-08T15:06:50;6.35;;;4.93;;
51374;SDS011;37465;52.738;4.752;2023-02-08T15:09:27;5.63;;;4.75;;
51374;SDS011;37465;52.738;4.752;2023-02-08T15:11:59;6.97;;;5.40;;
51374;SDS011;37465;52.738;4.752;2023-02-08T15:14:29;6.30;;;5.38;;
51374;SDS011;37465;52.738;4.752;2023-02-08T15:16:57;7.57;;;5.10;;
51374;SDS011;37465;52.738;4.752;2023-02-08T15:19:27;6.20;;;5.40;;
51374;SDS011;37465;52.738;4.752;2023-02-08T15:24:56;8.40;;;6.43;;
51374;SDS011;37465;52.738;4.752;2023-02-08T15:27:27;8.27;;;6.13;;
51374;SDS011;37465;52.738;4.752;2023-02-08T15:29:55;7.97;;;6.35;;
51374;SDS011;37465;52.738;4.752;2023-02-08T15:32:24;8.13;;;6.20;;
51374;SDS011;37465;52.738;4.752;2023-02-08T15:34:54;9.15;;;5.55;;
51374;SDS011;37465;52.738;4.752;2023-02-08T15:37:23;7.78;;;6.05;;
51374;SDS011;37465;52.738;4.752;2023-02-08T15:39:52;8.43;;;5.95;;
51374;SDS011;37465;52.738;4.752;2023-02-08T15:42:22;6.75;;;5.03;;
51374;SDS011;37465;52.738;4.752;2023-02-08T15:44:51;9.13;;;5.38;;
51374;SDS011;37465;52.738;4.752;2023-02-08T15:47:20;5.88;;;5.13;;
51374;SDS011;37465;52.738;4.752;2023-02-08T15:49:51;7.70;;;5.47;;
51374;SDS011;37465;52.738;4.752;2023-02-08T15:52:21;8.15;;;5.85;;
51374;SDS011;37465;52.738;4.752;2023-02-08T15:54:50;6.20;;;5.18;;
51374;SDS011;37465;52.738;4.752;2023-02-08T15:57:20;9.75;;;5.53;;
51374;SDS011;37465;52.738;4.752;2023-02-08T15:59:54;7.40;;;5.63;;
51374;SDS011;37465;52.738;4.752;2023-02-08T16:02:23;7.28;;;5.63;;
51374;SDS011;37465;52.738;4.752;2023-02-08T16:04:54;7.28;;;5.57;;
51374;SDS011;37465;52.738;4.752;2023-02-08T16:07:24;7.50;;;6.35;;
51374;SDS011;37465;52.738;4.752;2023-02-08T16:09:54;8.20;;;5.75;;
51374;SDS011;37465;52.738;4.752;2023-02-08T16:12:23;8.20;;;6.05;;
51374;SDS011;37465;52.738;4.752;2023-02-08T16:14:51;6.82;;;5.40;;
51374;SDS011;37465;52.738;4.752;2023-02-08T16:17:32;8.15;;;5.20;;
51374;SDS011;37465;52.738;4.752;2023-02-08T16:22:56;7.93;;;6.28;;
51374;SDS011;37465;52.738;4.752;2023-02-08T16:25:31;8.68;;;5.93;;
51374;SDS011;37465;52.738;4.752;2023-02-08T16:28:01;7.70;;;5.68;;
51374;SDS011;37465;52.738;4.752;2023-02-08T16:30:29;7.70;;;5.05;;
51374;SDS011;37465;52.738;4.752;2023-02-08T16:33:04;7.00;;;5.38;;
51374;SDS011;37465;52.738;4.752;2023-02-08T16:35:35;7.32;;;4.95;;
51374;SDS011;37465;52.738;4.752;2023-02-08T16:38:05;8.82;;;5.43;;
51374;SDS011;37465;52.738;4.752;2023-02-08T16:40:42;5.40;;;4.68;;
51374;SDS011;37465;52.738;4.752;2023-02-08T16:43:20;6.47;;;5.55;;
51374;SDS011;37465;52.738;4.752;2023-02-08T16:48:43;7.35;;;5.13;;
51374;SDS011;37465;52.738;4.752;2023-02-08T16:51:13;6.68;;;5.28;;
51374;SDS011;37465;52.738;4.752;2023-02-08T16:53:43;8.27;;;6.18;;
51374;SDS011;37465;52.738;4.752;2023-02-08T16:56:12;6.90;;;6.00;;
51374;SDS011;37465;52.738;4.752;2023-02-08T16:58:40;9.57;;;5.97;;
51374;SDS011;37465;52.738;4.752;2023-02-08T17:01:08;11.27;;;6.63;;
51374;SDS011;37465;52.738;4.752;2023-02-08T17:03:37;13.85;;;8.60;;
51374;SDS011;37465;52.738;4.752;2023-02-08T17:06:05;16.05;;;9.32;;
51374;SDS011;37465;52.738;4.752;2023-02-08T17:08:34;13.15;;;8.27;;
51374;SDS011;37465;52.738;4.752;2023-02-08T17:11:02;13.68;;;7.95;;
51374;SDS011;37465;52.738;4.752;2023-02-08T17:13:30;10.05;;;6.97;;
51374;SDS011;37465;52.738;4.752;2023-02-08T17:15:57;10.95;;;6.93;;
51374;SDS011;37465;52.738;4.752;2023-02-08T17:18:26;10.20;;;6.97;;
51374;SDS011;37465;52.738;4.752;2023-02-08T17:20:54;10.60;;;7.65;;
51374;SDS011;37465;52.738;4.752;2023-02-08T17:23:24;14.07;;;9.93;;
51374;SDS011;37465;52.738;4.752;2023-02-08T17:25:54;13.70;;;9.73;;
51374;SDS011;37465;52.738;4.752;2023-02-08T17:28:22;15.15;;;10.00;;
51374;SDS011;37465;52.738;4.752;2023-02-08T17:30:50;16.58;;;9.90;;
51374;SDS011;37465;52.738;4.752;2023-02-08T17:33:19;13.52;;;9.55;;
51374;SDS011;37465;52.738;4.752;2023-02-08T17:35:47;12.50;;;9.20;;
51374;SDS011;37465;52.738;4.752;2023-02-08T17:38:16;11.75;;;8.82;;
51374;SDS011;37465;52.738;4.752;2023-02-08T17:40:44;10.68;;;8.18;;
51374;SDS011;37465;52.738;4.752;2023-02-08T17:43:13;10.18;;;8.13;;
51374;SDS011;37465;52.738;4.752;2023-02-08T17:45:41;10.88;;;8.50;;
51374;SDS011;37465;52.738;4.752;2023-02-08T17:48:10;9.70;;;7.82;;
51374;SDS011;37465;52.738;4.752;2023-02-08T17:50:39;11.85;;;9.02;;
51374;SDS011;37465;52.738;4.752;2023-02-08T17:53:08;13.75;;;8.50;;
51374;SDS011;37465;52.738;4.752;2023-02-08T17:55:35;13.10;;;8.30;;
51374;SDS011;37465;52.738;4.752;2023-02-08T17:58:03;12.93;;;9.02;;
51374;SDS011;37465;52.738;4.752;2023-02-08T18:00:32;10.50;;;8.15;;
51374;SDS011;37465;52.738;4.752;2023-02-08T18:03:00;10.75;;;7.95;;
51374;SDS011;37465;52.738;4.752;2023-02-08T18:05:28;13.43;;;9.38;;
51374;SDS011;37465;52.738;4.752;2023-02-08T18:07:56;14.43;;;9.60;;
51374;SDS011;37465;52.738;4.752;2023-02-08T18:10:24;15.90;;;9.32;;
51374;SDS011;37465;52.738;4.752;2023-02-08T18:12:53;15.57;;;9.93;;
51374;SDS011;37465;52.738;4.752;2023-02-08T18:15:21;13.77;;;9.82;;
51374;SDS011;37465;52.738;4.752;2023-02-08T18:17:50;15.23;;;9.75;;
51374;SDS011;37465;52.738;4.752;2023-02-08T18:20:18;13.48;;;9.65;;
51374;SDS011;37465;52.738;4.752;2023-02-08T18:22:45;12.93;;;8.95;;
51374;SDS011;37465;52.738;4.752;2023-02-08T18:25:13;14.63;;;8.85;;
51374;SDS011;37465;52.738;4.752;2023-02-08T18:27:41;12.93;;;8.65;;
51374;SDS011;37465;52.738;4.752;2023-02-08T18:30:09;11.90;;;8.23;;
51374;SDS011;37465;52.738;4.752;2023-02-08T18:32:38;12.40;;;8.63;;
51374;SDS011;37465;52.738;4.752;2023-02-08T18:35:07;12.63;;;8.02;;
51374;SDS011;37465;52.738;4.752;2023-02-08T18:37:35;13.27;;;8.65;;
51374;SDS011;37465;52.738;4.752;2023-02-08T18:40:04;12.73;;;8.30;;
51374;SDS011;37465;52.738;4.752;2023-02-08T18:42:32;12.00;;;8.30;;
51374;SDS011;37465;52.738;4.752;2023-02-08T18:45:01;12.88;;;8.10;;
51374;SDS011;37465;52.738;4.752;2023-02-08T18:47:29;13.52;;;7.80;;
51374;SDS011;37465;52.738;4.752;2023-02-08T18:49:57;12.18;;;9.05;;
51374;SDS011;37465;52.738;4.752;2023-02-08T18:52:26;13.02;;;8.48;;
51374;SDS011;37465;52.738;4.752;2023-02-08T18:54:56;13.80;;;8.80;;
51374;SDS011;37465;52.738;4.752;2023-02-08T18:57:24;12.88;;;8.90;;
51374;SDS011;37465;52.738;4.752;2023-02-08T18:59:52;11.98;;;9.02;;
51374;SDS011;37465;52.738;4.752;2023-02-08T19:02:21;13.75;;;9.13;;
51374;SDS011;37465;52.738;4.752;2023-02-08T19:04:51;12.43;;;8.80;;
51374;SDS011;37465;52.738;4.752;2023-02-08T19:07:19;13.63;;;8.50;;
51374;SDS011;37465;52.738;4.752;2023-02-08T19:09:48;15.68;;;9.50;;
51374;SDS011;37465;52.738;4.752;2023-02-08T19:12:15;15.88;;;10.77;;
51374;SDS011;37465;52.738;4.752;2023-02-08T19:14:46;15.20;;;11.32;;
51374;SDS011;37465;52.738;4.752;2023-02-08T19:17:15;16.95;;;10.88;;
51374;SDS011;37465;52.738;4.752;2023-02-08T19:19:43;15.98;;;11.43;;
51374;SDS011;37465;52.738;4.752;2023-02-08T19:22:11;15.65;;;10.20;;